Time;durP1;ratioP1;P1;durP2;ratioP2;P2;SDS_P1;SDS_P2;PMS_P1;PMS_P2;Temp;Humidity;BMP_temperature;BMP_pressure;BME280_temperature;BME280_humidity;BME280_pressure;Samples;Min_cycle;Max_cycle;Signal;HPM_P1;HPM_P2
2022/11/09 00:00:46;;;;;;;3.30;2.40;;;14.40;99.90;;;;;;5117961;28;20455;-59
2022/11/09 00:03:13;;;;;;;2.83;2.30;;;14.40;99.90;;;;;;5117493;28;20502;-59
2022/11/09 00:05:42;;;;;;;3.43;2.27;;;14.40;99.90;;;;;;5117952;28;20746;-59
2022/11/09 00:08:11;;;;;;;3.00;2.57;;;14.40;99.90;;;;;;5121478;28;20425;-57
2022/11/09 00:10:40;;;;;;;2.73;2.20;;;14.40;99.90;;;;;;5138650;27;20518;-59
2022/11/09 00:13:08;;;;;;;4.27;2.17;;;14.40;99.90;;;;;;5130637;27;20534;-59
2022/11/09 00:15:35;;;;;;;2.60;1.93;;;14.40;99.90;;;;;;5117538;28;20442;-58
2022/11/09 00:18:06;;;;;;;3.03;2.73;;;14.40;99.90;;;;;;5117228;28;20473;-57
2022/11/09 00:20:34;;;;;;;4.47;2.53;;;14.40;99.90;;;;;;5117797;28;20455;-56
2022/11/09 00:23:01;;;;;;;3.30;2.47;;;14.40;99.90;;;;;;5118708;28;20434;-58
2022/11/09 00:25:29;;;;;;;3.07;2.33;;;14.40;99.90;;;;;;5138000;28;20459;-57
2022/11/09 00:27:56;;;;;;;3.43;2.20;;;14.40;99.90;;;;;;5136415;28;20455;-58
2022/11/09 00:30:26;;;;;;;4.00;2.50;;;14.40;99.90;;;;;;5137585;28;20946;-56
2022/11/09 00:32:53;;;;;;;17.73;2.87;;;14.40;99.90;;;;;;5138495;27;20458;-59
2022/11/09 00:35:22;;;;;;;2.73;2.20;;;14.40;99.90;;;;;;5124464;27;20922;-60
2022/11/09 00:37:49;;;;;;;3.03;2.23;;;14.30;99.90;;;;;;5120832;28;20456;-59
2022/11/09 00:40:16;;;;;;;3.03;2.17;;;14.30;99.90;;;;;;5121889;28;20459;-59
2022/11/09 00:42:48;;;;;;;3.30;2.53;;;14.30;99.90;;;;;;5121305;28;20459;-60
2022/11/09 00:45:15;;;;;;;2.90;2.40;;;14.30;99.90;;;;;;5121283;28;20463;-58
2022/11/09 00:47:42;;;;;;;4.17;2.50;;;14.30;99.90;;;;;;5121730;28;20762;-57
2022/11/09 00:50:10;;;;;;;2.90;2.40;;;14.30;99.90;;;;;;5121436;28;20745;-59
2022/11/09 00:52:37;;;;;;;2.73;2.00;;;14.20;99.90;;;;;;5121618;28;20434;-59
2022/11/09 00:55:05;;;;;;;3.50;2.60;;;14.20;99.90;;;;;;5121263;28;20456;-57
2022/11/09 00:57:32;;;;;;;3.20;2.10;;;14.20;99.90;;;;;;5120721;28;20562;-59
2022/11/09 01:00:04;;;;;;;3.23;2.30;;;14.20;99.90;;;;;;5121092;28;20549;-59
2022/11/09 01:02:31;;;;;;;3.57;2.80;;;14.20;99.90;;;;;;5121160;28;20493;-57
2022/11/09 01:04:59;;;;;;;2.33;2.03;;;14.20;99.90;;;;;;5121500;28;20763;-59
2022/11/09 01:07:28;;;;;;;2.57;2.20;;;14.10;99.90;;;;;;5121303;28;20830;-60
2022/11/09 01:09:55;;;;;;;3.73;2.10;;;14.10;99.90;;;;;;5121058;28;20434;-57
2022/11/09 01:12:23;;;;;;;3.50;2.67;;;14.10;99.90;;;;;;5121191;28;20455;-57
2022/11/09 01:14:50;;;;;;;3.30;2.60;;;14.10;99.90;;;;;;5121384;28;20440;-60
2022/11/09 01:17:18;;;;;;;3.27;2.10;;;14.10;99.90;;;;;;5121003;28;20740;-59
2022/11/09 01:19:45;;;;;;;3.87;2.30;;;14.10;99.90;;;;;;5121224;28;20433;-58
2022/11/09 01:22:16;;;;;;;3.43;2.10;;;14.10;99.90;;;;;;5121417;28;20851;-57
2022/11/09 01:24:46;;;;;;;3.90;2.80;;;14.10;99.90;;;;;;5121017;28;20459;-60
2022/11/09 01:27:16;;;;;;;3.87;2.10;;;14.10;99.90;;;;;;5120677;28;20459;-59
2022/11/09 01:29:43;;;;;;;3.53;2.50;;;14.00;99.90;;;;;;5120549;28;20455;-60
2022/11/09 01:32:10;;;;;;;3.87;2.17;;;14.00;99.90;;;;;;5120634;28;20759;-58
2022/11/09 01:34:40;;;;;;;5.00;2.60;;;14.00;99.90;;;;;;5120597;28;20768;-59
2022/11/09 01:37:07;;;;;;;3.03;2.70;;;14.00;99.90;;;;;;5119281;28;20473;-57
2022/11/09 01:39:34;;;;;;;2.63;2.17;;;14.00;99.90;;;;;;5120747;28;20434;-56
2022/11/09 01:42:04;;;;;;;3.63;2.50;;;13.90;99.90;;;;;;5120576;28;20455;-60
2022/11/09 01:44:33;;;;;;;2.83;2.40;;;13.90;99.90;;;;;;5120276;28;20456;-60
2022/11/09 01:47:04;;;;;;;4.23;2.67;;;13.90;99.90;;;;;;5122026;27;20438;-60
2022/11/09 01:49:39;;;;;;;3.80;3.20;;;13.90;99.90;;;;;;5140968;27;20724;-59
2022/11/09 01:52:12;;;;;;;2.97;2.60;;;13.90;99.90;;;;;;5140332;27;20457;-58
2022/11/09 01:54:42;;;;;;;2.50;2.00;;;13.90;99.90;;;;;;5140674;27;20751;-60
2022/11/09 01:57:19;;;;;;;3.43;2.20;;;13.80;99.90;;;;;;5140201;27;20480;-60
2022/11/09 01:59:52;;;;;;;7.30;2.77;;;13.80;99.90;;;;;;5120166;28;20455;-59
2022/11/09 02:02:20;;;;;;;3.70;2.43;;;13.90;99.90;;;;;;5120306;28;20458;-59
2022/11/09 02:04:51;;;;;;;3.90;2.30;;;13.90;99.90;;;;;;5120335;28;20486;-60
2022/11/09 02:07:22;;;;;;;4.37;2.40;;;13.90;99.90;;;;;;5119956;28;20438;-60
2022/11/09 02:09:55;;;;;;;2.50;2.20;;;13.80;99.90;;;;;;5120485;27;20803;-60
2022/11/09 02:12:24;;;;;;;3.80;2.40;;;13.80;99.90;;;;;;5121410;27;20482;-59
2022/11/09 02:14:53;;;;;;;3.33;2.27;;;13.70;99.90;;;;;;5120237;28;20461;-60
2022/11/09 02:17:21;;;;;;;6.30;1.97;;;13.70;99.90;;;;;;5120349;27;20463;-58
2022/11/09 02:19:49;;;;;;;5.33;2.93;;;13.70;99.90;;;;;;5120068;28;20463;-60
2022/11/09 02:22:20;;;;;;;2.80;2.10;;;13.70;99.90;;;;;;5119572;27;20768;-60
2022/11/09 02:24:50;;;;;;;4.47;2.50;;;13.70;99.90;;;;;;5119923;28;20867;-58
2022/11/09 02:27:18;;;;;;;3.30;2.20;;;13.70;99.90;;;;;;5124112;27;20437;-61
2022/11/09 02:29:47;;;;;;;3.10;2.60;;;13.60;1.00;;;;;;5139521;27;20461;-61
2022/11/09 02:32:18;;;;;;;4.50;2.57;;;13.60;99.90;;;;;;5139114;27;20494;-57
2022/11/09 02:34:45;;;;;;;4.23;2.50;;;13.60;99.90;;;;;;5140017;27;20865;-61
2022/11/09 02:37:25;;;;;;;3.80;2.93;;;13.60;99.90;;;;;;5138707;27;20463;-60
2022/11/09 02:39:53;;;;;;;3.03;2.50;;;13.60;1.00;;;;;;5119041;28;20925;-60
2022/11/09 02:42:21;;;;;;;11.10;3.37;;;13.50;1.00;;;;;;5119132;28;20435;-60
2022/11/09 02:44:51;;;;;;;3.37;2.60;;;13.50;1.00;;;;;;5118698;27;20440;-59
2022/11/09 02:47:18;;;;;;;5.10;2.77;;;13.50;1.00;;;;;;5118989;28;20881;-60
2022/11/09 02:49:45;;;;;;;3.80;2.23;;;13.50;1.00;;;;;;5135310;27;20437;-60
2022/11/09 02:52:16;;;;;;;2.53;1.93;;;13.50;1.00;;;;;;5139562;27;20931;-60
2022/11/09 02:54:44;;;;;;;2.90;2.30;;;13.50;1.00;;;;;;5139921;27;20434;-59
2022/11/09 02:57:11;;;;;;;4.67;2.40;;;13.50;1.00;;;;;;5138231;27;20459;-59
2022/11/09 02:59:39;;;;;;;2.70;2.30;;;13.50;1.00;;;;;;5125925;27;20463;-60
2022/11/09 03:02:06;;;;;;;3.67;2.13;;;13.50;1.00;;;;;;5118746;28;20483;-60
2022/11/09 03:04:33;;;;;;;4.87;2.17;;;13.50;1.00;;;;;;5118968;27;20430;-60
2022/11/09 03:07:04;;;;;;;2.87;2.10;;;13.40;1.00;;;;;;5119276;28;20483;-59
2022/11/09 03:09:31;;;;;;;3.70;2.87;;;13.40;1.00;;;;;;5125243;27;20462;-59
2022/11/09 03:12:27;;;;;;;3.80;3.10;;;13.40;1.00;;;;;;5139414;27;20586;-60
2022/11/09 03:14:48;;;;;;;5.30;3.10;;;13.40;1.00;;;;;;5138938;27;20451;-60
2022/11/09 03:17:16;;;;;;;3.10;2.23;;;13.40;1.00;;;;;;5139188;27;20433;-58
2022/11/09 03:19:43;;;;;;;6.13;2.80;;;13.50;1.00;;;;;;5139317;27;20805;-56
2022/11/09 03:22:11;;;;;;;3.07;2.07;;;13.50;1.00;;;;;;5139423;27;20421;-57
2022/11/09 03:24:41;;;;;;;3.57;2.30;;;13.50;1.00;;;;;;5139276;27;20549;-59
2022/11/09 03:27:12;;;;;;;3.73;3.27;;;13.40;1.00;;;;;;5138906;27;20715;-59
2022/11/09 03:29:39;;;;;;;5.53;2.80;;;13.40;1.00;;;;;;5139051;27;20463;-60
2022/11/09 03:32:07;;;;;;;4.00;2.43;;;13.50;1.00;;;;;;5139192;27;20543;-59
2022/11/09 03:34:36;;;;;;;3.77;2.00;;;13.50;1.00;;;;;;5138658;27;20739;-60
2022/11/09 03:37:04;;;;;;;3.30;2.40;;;13.50;1.00;;;;;;5139191;27;20460;-60
2022/11/09 03:39:32;;;;;;;3.30;2.30;;;13.50;1.00;;;;;;5138647;27;20724;-60
2022/11/09 03:41:59;;;;;;;5.30;2.53;;;13.50;1.00;;;;;;5136708;27;20463;-59
2022/11/09 03:44:28;;;;;;;5.53;2.60;;;13.50;1.00;;;;;;5137539;27;20437;-60
2022/11/09 03:46:55;;;;;;;5.53;2.60;;;13.50;1.00;;;;;;5131877;27;20454;-60
2022/11/09 03:49:26;;;;;;;4.20;2.40;;;13.50;1.00;;;;;;5137729;27;20537;-60
2022/11/09 03:51:53;;;;;;;5.83;3.37;;;13.60;1.00;;;;;;5125723;27;20767;-59
2022/11/09 03:54:23;;;;;;;3.00;2.03;;;13.60;1.00;;;;;;5117934;28;20470;-59
2022/11/09 03:56:50;;;;;;;5.20;2.90;;;13.60;1.00;;;;;;5118047;28;20855;-60
2022/11/09 03:59:18;;;;;;;5.00;2.50;;;13.60;1.00;;;;;;5117480;28;20433;-58
2022/11/09 04:01:47;;;;;;;2.80;2.47;;;13.60;1.00;;;;;;5123823;27;20543;-60
2022/11/09 04:04:15;;;;;;;3.97;2.27;;;13.50;1.00;;;;;;5138225;27;20462;-59
2022/11/09 04:06:42;;;;;;;9.10;3.10;;;13.50;1.00;;;;;;5136868;27;20445;-60
2022/11/09 04:09:10;;;;;;;3.80;2.60;;;13.50;1.00;;;;;;5136878;27;20951;-59
2022/11/09 04:11:37;;;;;;;4.77;2.83;;;13.50;1.00;;;;;;5138305;27;20590;-59
2022/11/09 04:14:05;;;;;;;3.27;2.13;;;13.50;1.00;;;;;;5138909;27;20458;-60
2022/11/09 04:16:34;;;;;;;3.40;2.43;;;13.60;1.00;;;;;;5138783;27;20433;-59
2022/11/09 04:19:05;;;;;;;5.33;3.00;;;13.60;1.00;;;;;;5139071;28;20437;-58
2022/11/09 04:21:33;;;;;;;3.10;2.23;;;13.60;1.00;;;;;;5138433;28;20927;-59
2022/11/09 04:24:00;;;;;;;4.30;2.67;;;13.60;1.00;;;;;;5138538;27;20466;-58
2022/11/09 04:26:27;;;;;;;2.97;2.30;;;13.60;1.00;;;;;;5138522;27;20465;-57
2022/11/09 04:28:54;;;;;;;4.50;2.60;;;13.70;1.00;;;;;;5138325;28;20458;-56
2022/11/09 04:31:21;;;;;;;3.73;2.70;;;13.60;1.00;;;;;;5138187;28;20497;-60
2022/11/09 04:33:54;;;;;;;3.80;2.43;;;13.70;1.00;;;;;;5125009;28;20459;-58
2022/11/09 04:36:25;;;;;;;4.60;2.30;;;13.70;1.00;;;;;;5118161;28;20858;-59
2022/11/09 04:38:53;;;;;;;13.63;3.03;;;13.70;1.00;;;;;;5117634;28;20463;-58
2022/11/09 04:41:20;;;;;;;3.10;2.40;;;13.70;1.00;;;;;;5130533;28;20885;-60
2022/11/09 04:43:47;;;;;;;3.80;2.70;;;13.70;1.00;;;;;;5136268;28;20963;-57
2022/11/09 04:46:15;;;;;;;4.80;2.30;;;13.70;1.00;;;;;;5136557;27;20462;-59
2022/11/09 04:48:44;;;;;;;4.53;2.50;;;13.70;1.00;;;;;;5136364;28;20454;-58
2022/11/09 04:51:11;;;;;;;3.47;2.33;;;13.70;1.00;;;;;;5136325;28;20779;-58
2022/11/09 04:53:40;;;;;;;4.50;2.30;;;13.70;1.00;;;;;;5133826;28;20477;-58
2022/11/09 04:56:08;;;;;;;5.70;3.57;;;13.70;1.00;;;;;;5116923;28;20459;-60
2022/11/09 04:58:36;;;;;;;4.00;2.10;;;13.70;1.00;;;;;;5117904;28;20455;-60
2022/11/09 05:01:04;;;;;;;4.67;2.13;;;13.70;1.00;;;;;;5117428;28;20509;-57
2022/11/09 05:03:32;;;;;;;4.50;3.43;;;13.70;1.00;;;;;;5116099;28;20794;-58
2022/11/09 05:05:59;;;;;;;3.80;2.40;;;13.70;1.00;;;;;;5135393;28;20462;-59
2022/11/09 05:08:27;;;;;;;3.60;2.20;;;13.80;1.00;;;;;;5134383;28;20502;-60
2022/11/09 05:10:58;;;;;;;4.37;2.20;;;13.80;1.00;;;;;;5130300;28;20518;-60
2022/11/09 05:13:25;;;;;;;3.60;2.40;;;13.80;1.00;;;;;;5116640;28;20451;-59
2022/11/09 05:15:55;;;;;;;5.83;3.10;;;13.80;1.00;;;;;;5116951;28;20827;-60
2022/11/09 05:18:22;;;;;;;6.27;2.43;;;13.80;1.00;;;;;;5116925;28;20455;-60
2022/11/09 05:20:49;;;;;;;2.70;2.17;;;13.80;1.00;;;;;;5132784;27;20465;-58
2022/11/09 05:25:59;;;;;;;3.50;2.80;;;13.70;1.00;;;;;;5107596;28;20416;-59
2022/11/09 05:28:26;;;;;;;5.27;2.40;;;13.60;1.00;;;;;;5120686;28;20459;-58
2022/11/09 05:30:55;;;;;;;6.80;2.53;;;13.50;1.00;;;;;;5131830;27;20507;-58
2022/11/09 05:33:22;;;;;;;4.67;3.00;;;13.40;1.00;;;;;;5141178;27;20942;-56
2022/11/09 05:35:49;;;;;;;6.50;2.90;;;13.30;1.00;;;;;;5140145;27;20430;-53
2022/11/09 05:38:17;;;;;;;4.73;2.30;;;13.20;1.00;;;;;;5141388;27;20732;-56
2022/11/09 05:40:44;;;;;;;5.10;2.60;;;13.20;1.00;;;;;;5139947;27;20454;-55
2022/11/09 05:43:12;;;;;;;5.13;2.80;;;13.00;1.00;;;;;;5140404;27;20451;-55
2022/11/09 05:45:42;;;;;;;5.07;2.10;;;12.90;1.00;;;;;;5140851;27;20433;-56
2022/11/09 05:48:11;;;;;;;4.40;2.60;;;12.90;1.00;;;;;;5139939;27;20618;-57
2022/11/09 05:50:38;;;;;;;4.80;2.50;;;12.70;1.00;;;;;;5139460;27;20466;-56
2022/11/09 05:53:06;;;;;;;4.93;2.40;;;12.70;1.00;;;;;;5120239;28;20494;-59
2022/11/09 05:55:33;;;;;;;8.50;3.33;;;12.60;1.00;;;;;;5125321;27;20537;-60
2022/11/09 05:58:04;;;;;;;5.30;2.80;;;12.70;1.00;;;;;;5140644;27;20549;-60
2022/11/09 06:00:33;;;;;;;5.97;2.47;;;12.60;1.00;;;;;;5138944;27;20533;-59
2022/11/09 06:03:03;;;;;;;3.43;2.30;;;12.60;1.00;;;;;;5137799;27;20558;-61
2022/11/09 06:05:30;;;;;;;3.77;2.87;;;12.60;1.00;;;;;;5138161;27;20473;-59
2022/11/09 06:08:02;;;;;;;6.97;2.80;;;12.60;1.00;;;;;;5138618;27;20458;-56
2022/11/09 06:10:29;;;;;;;6.53;2.30;;;12.50;1.00;;;;;;5138823;27;20548;-59
2022/11/09 06:12:57;;;;;;;7.63;2.63;;;12.50;1.00;;;;;;5126477;27;20462;-58
2022/11/09 06:15:24;;;;;;;9.50;3.53;;;12.40;21.60;;;;;;5119427;28;20460;-58
2022/11/09 06:17:53;;;;;;;7.53;2.87;;;12.30;99.90;;;;;;5119844;28;20479;-57
2022/11/09 06:20:21;;;;;;;4.93;2.93;;;12.30;99.90;;;;;;5119744;28;21009;-59
2022/11/09 06:22:54;;;;;;;7.60;3.07;;;12.30;99.90;;;;;;5119661;28;20474;-59
2022/11/09 06:25:24;;;;;;;3.83;2.67;;;12.30;99.90;;;;;;5119471;28;20467;-59
2022/11/09 06:27:54;;;;;;;6.40;2.67;;;12.20;99.90;;;;;;5119319;28;20466;-59
2022/11/09 06:30:22;;;;;;;7.00;2.83;;;12.20;99.90;;;;;;5119404;28;20922;-58
2022/11/09 06:32:49;;;;;;;6.20;2.93;;;12.20;1.00;;;;;;5119307;27;20457;-56
2022/11/09 06:35:18;;;;;;;8.30;3.03;;;12.20;1.00;;;;;;5118218;28;20462;-56
2022/11/09 06:37:45;;;;;;;3.80;2.60;;;12.20;99.90;;;;;;5119551;27;20732;-60
2022/11/09 06:40:20;;;;;;;7.97;2.90;;;12.20;1.00;;;;;;5123209;27;20425;-63
2022/11/09 06:42:47;;;;;;;5.30;2.43;;;12.10;1.00;;;;;;5139981;27;20540;-62
2022/11/09 06:45:17;;;;;;;5.90;2.50;;;12.00;99.90;;;;;;5139163;27;20462;-63
2022/11/09 06:47:45;;;;;;;3.37;2.30;;;12.10;2.60;;;;;;5139632;27;20438;-63
2022/11/09 06:50:12;;;;;;;5.37;2.10;;;12.10;1.00;;;;;;5139909;27;20478;-64
2022/11/09 06:52:41;;;;;;;4.20;2.00;;;12.10;1.00;;;;;;5139662;27;21001;-64
2022/11/09 06:55:11;;;;;;;3.80;2.37;;;12.00;1.00;;;;;;5139145;27;20512;-64
2022/11/09 06:57:38;;;;;;;3.90;2.43;;;12.00;1.00;;;;;;5139886;27;20458;-64
2022/11/09 07:00:10;;;;;;;5.60;3.10;;;12.10;1.00;;;;;;5139738;27;20426;-64
2022/11/09 07:02:37;;;;;;;3.43;2.30;;;12.10;1.00;;;;;;5139731;27;20866;-64
2022/11/09 07:05:07;;;;;;;4.37;2.63;;;12.10;1.00;;;;;;5139428;27;20497;-64
2022/11/09 07:07:36;;;;;;;3.40;1.90;;;12.10;1.00;;;;;;5139221;27;20480;-64
2022/11/09 07:10:06;;;;;;;4.80;2.73;;;12.00;1.00;;;;;;5139123;27;20429;-64
2022/11/09 07:12:34;;;;;;;6.20;2.40;;;12.00;1.00;;;;;;5139291;27;20577;-64
2022/11/09 07:15:01;;;;;;;4.57;2.80;;;12.00;12.20;;;;;;5139491;27;20501;-64
2022/11/09 07:17:30;;;;;;;5.33;2.27;;;12.00;99.90;;;;;;5138949;27;20469;-65
2022/11/09 07:20:05;;;;;;;6.27;2.90;;;12.00;99.90;;;;;;5138951;27;20738;-65
2022/11/09 07:22:33;;;;;;;5.80;2.70;;;12.00;99.90;;;;;;5138876;27;20458;-64
2022/11/09 07:25:01;;;;;;;5.33;2.90;;;12.00;99.90;;;;;;5139301;27;20440;-65
2022/11/09 07:27:29;;;;;;;2.93;2.60;;;12.00;1.00;;;;;;5138542;27;20458;-65
2022/11/09 07:29:59;;;;;;;4.63;2.60;;;12.00;1.00;;;;;;5138862;27;20899;-64
2022/11/09 07:32:26;;;;;;;5.30;2.57;;;12.00;1.00;;;;;;5138392;27;20967;-64
2022/11/09 07:34:56;;;;;;;5.97;2.43;;;12.00;99.90;;;;;;5137965;27;20432;-64
2022/11/09 07:37:23;;;;;;;6.50;2.77;;;12.00;99.90;;;;;;5136490;27;20458;-63
2022/11/09 07:39:54;;;;;;;5.57;2.33;;;12.00;99.90;;;;;;5136124;27;20528;-64
2022/11/09 07:42:23;;;;;;;5.63;2.67;;;12.10;50.20;;;;;;5136884;27;20855;-64
2022/11/09 07:44:51;;;;;;;4.90;2.20;;;12.10;1.00;;;;;;5135994;27;20504;-64
2022/11/09 07:47:19;;;;;;;3.30;2.10;;;12.10;1.00;;;;;;5135883;27;20584;-65
2022/11/09 07:49:47;;;;;;;5.13;2.67;;;12.10;1.00;;;;;;5136504;27;20465;-64
2022/11/09 07:52:14;;;;;;;5.10;2.60;;;12.10;1.00;;;;;;5136815;27;20807;-63
2022/11/09 07:54:41;;;;;;;3.23;2.10;;;12.10;1.00;;;;;;5137697;27;20589;-64
2022/11/09 07:57:09;;;;;;;12.10;2.10;;;12.00;1.00;;;;;;5137529;27;20459;-64
2022/11/09 07:59:36;;;;;;;4.57;2.13;;;12.00;1.00;;;;;;5137380;27;20511;-64
2022/11/09 08:02:04;;;;;;;5.53;2.10;;;12.10;40.00;;;;;;5137422;27;20515;-64
2022/11/09 08:04:35;;;;;;;5.50;2.50;;;12.20;99.90;;;;;;5138440;27;20469;-64
2022/11/09 08:07:02;;;;;;;5.77;3.00;;;12.30;1.00;;;;;;5138497;27;20893;-63
2022/11/09 08:09:30;;;;;;;5.00;2.47;;;12.40;1.00;;;;;;5138247;27;20434;-64
2022/11/09 08:11:57;;;;;;;3.00;2.07;;;12.40;1.00;;;;;;5138323;27;20499;-64
2022/11/09 08:14:25;;;;;;;5.73;2.57;;;12.30;99.90;;;;;;5138266;27;20458;-64
2022/11/09 08:16:53;;;;;;;5.47;2.17;;;12.40;1.00;;;;;;5138494;28;20433;-64
2022/11/09 08:19:22;;;;;;;4.70;2.63;;;12.50;1.00;;;;;;5138350;27;20466;-63
2022/11/09 08:21:50;;;;;;;3.50;2.27;;;12.70;1.00;;;;;;5138580;27;20454;-64
2022/11/09 08:24:17;;;;;;;4.07;2.83;;;12.70;99.90;;;;;;5138225;28;20785;-63
2022/11/09 08:26:45;;;;;;;4.87;2.77;;;12.60;99.90;;;;;;5138212;28;20742;-63
2022/11/09 08:29:14;;;;;;;4.67;2.70;;;12.70;99.90;;;;;;5137850;28;20913;-63
2022/11/09 08:31:41;;;;;;;4.77;2.33;;;12.90;99.90;;;;;;5137493;27;20469;-63
2022/11/09 08:34:12;;;;;;;2.90;1.90;;;13.10;99.90;;;;;;5137718;28;20526;-64
2022/11/09 08:36:41;;;;;;;7.30;3.03;;;13.10;99.90;;;;;;5138103;28;20440;-64
2022/11/09 08:39:09;;;;;;;5.20;3.10;;;13.10;99.90;;;;;;5136668;28;20766;-64
2022/11/09 08:41:36;;;;;;;5.20;3.10;;;13.00;99.90;;;;;;5123482;28;20463;-64
2022/11/09 08:44:06;;;;;;;6.43;2.97;;;13.10;99.90;;;;;;5115047;28;20916;-63
2022/11/09 08:46:36;;;;;;;6.67;2.40;;;13.20;99.90;;;;;;5114649;28;20522;-63
2022/11/09 08:49:03;;;;;;;4.90;3.23;;;13.40;99.90;;;;;;5114653;28;20434;-65
2022/11/09 08:51:30;;;;;;;3.80;2.70;;;13.60;24.50;;;;;;5114741;28;20766;-63
2022/11/09 08:53:59;;;;;;;4.03;2.60;;;13.80;1.00;;;;;;5115232;28;20470;-63
2022/11/09 08:56:28;;;;;;;7.13;2.20;;;14.10;1.00;;;;;;5118584;28;20548;-63
2022/11/09 08:58:55;;;;;;;9.90;3.03;;;14.30;1.00;;;;;;5120783;28;20455;-63
2022/11/09 09:01:25;;;;;;;7.07;2.80;;;14.30;1.00;;;;;;5120404;28;20977;-63
2022/11/09 09:03:55;;;;;;;4.10;2.40;;;14.40;1.00;;;;;;5121787;27;20891;-63
2022/11/09 09:06:22;;;;;;;3.53;2.23;;;14.30;1.00;;;;;;5140423;27;20838;-63
2022/11/09 09:08:49;;;;;;;4.00;2.63;;;14.30;1.00;;;;;;5141799;27;20458;-62
2022/11/09 09:11:20;;;;;;;3.17;2.10;;;14.60;1.00;;;;;;5141373;27;20493;-62
2022/11/09 09:13:47;;;;;;;3.47;1.90;;;14.80;1.00;;;;;;5141038;27;20962;-61
2022/11/09 09:16:18;;;;;;;3.53;2.60;;;15.20;1.00;;;;;;5141225;27;20549;-62
2022/11/09 09:18:48;;;;;;;4.17;2.17;;;15.40;1.00;;;;;;5141750;27;20459;-62
2022/11/09 09:21:15;;;;;;;6.07;2.37;;;15.50;1.00;;;;;;5141166;27;20473;-62
2022/11/09 09:23:47;;;;;;;4.20;2.63;;;15.50;1.00;;;;;;5141215;27;20436;-62
2022/11/09 09:26:14;;;;;;;4.20;2.63;;;15.70;1.00;;;;;;5141203;27;20469;-62
2022/11/09 09:28:44;;;;;;;6.33;2.43;;;15.80;1.00;;;;;;5141634;27;20429;-62
2022/11/09 09:31:12;;;;;;;3.93;2.50;;;15.90;99.90;;;;;;5140956;27;20450;-61
2022/11/09 09:33:40;;;;;;;3.87;2.00;;;15.60;99.90;;;;;;5140932;27;20798;-61
2022/11/09 09:36:15;;;;;;;4.10;2.60;;;15.50;99.90;;;;;;5141067;27;20515;-61
2022/11/09 09:38:44;;;;;;;4.30;2.40;;;15.50;99.90;;;;;;5141026;27;20469;-61
2022/11/09 09:41:21;;;;;;;4.10;2.10;;;15.70;99.90;;;;;;5140494;27;20462;-61
2022/11/09 09:43:54;;;;;;;6.17;2.40;;;15.80;99.90;;;;;;5140901;27;20940;-61
2022/11/09 09:46:30;;;;;;;3.47;2.20;;;15.80;99.90;;;;;;5140990;27;20810;-62
2022/11/09 09:49:04;;;;;;;4.57;2.70;;;15.80;99.90;;;;;;5140256;27;20466;-62
2022/11/09 09:51:39;;;;;;;5.63;2.80;;;15.80;99.90;;;;;;5140381;27;20467;-62
2022/11/09 09:54:12;;;;;;;5.90;3.57;;;15.80;99.90;;;;;;5140880;27;20465;-62
2022/11/09 09:56:48;;;;;;;5.70;3.03;;;15.70;99.90;;;;;;5140907;27;20841;-62
2022/11/09 09:59:23;;;;;;;4.73;2.77;;;15.50;99.90;;;;;;5140241;27;20511;-62
2022/11/09 10:01:50;;;;;;;4.30;2.97;;;15.20;99.90;;;;;;5140305;27;20590;-62
2022/11/09 10:04:19;;;;;;;4.30;2.60;;;15.10;1.00;;;;;;5140668;27;20889;-62
2022/11/09 10:06:59;;;;;;;3.80;2.73;;;15.00;1.00;;;;;;5140375;27;20541;-61
2022/11/09 10:09:40;;;;;;;5.37;2.37;;;15.00;1.00;;;;;;5140428;27;20527;-61
2022/11/09 10:12:15;;;;;;;4.33;2.30;;;14.90;1.00;;;;;;5140516;27;20556;-62
2022/11/09 10:15:13;;;;;;;4.40;2.70;;;14.80;1.00;;;;;;5140091;27;20576;-62
2022/11/09 10:17:49;;;;;;;4.37;2.83;;;14.70;1.00;;;;;;5140320;27;20952;-62
2022/11/09 10:20:41;;;;;;;4.43;2.63;;;14.70;1.00;;;;;;5139716;27;20458;-62
2022/11/09 10:23:40;;;;;;;5.67;2.77;;;14.80;99.90;;;;;;5138560;27;20429;-62
2022/11/09 10:26:18;;;;;;;7.00;2.60;;;14.80;99.90;;;;;;5138666;27;20513;-62
2022/11/09 10:28:55;;;;;;;5.60;2.40;;;15.00;99.90;;;;;;5138813;27;20462;-62
2022/11/09 10:31:32;;;;;;;3.73;2.30;;;15.00;99.90;;;;;;5137986;27;20466;-62
2022/11/09 10:34:03;;;;;;;4.43;2.40;;;15.20;99.90;;;;;;5138663;27;20496;-61
2022/11/09 10:36:37;;;;;;;4.97;2.50;;;15.30;99.90;;;;;;5139929;27;20433;-61
2022/11/09 10:39:15;;;;;;;2.80;2.20;;;15.20;99.90;;;;;;5140470;27;20476;-62
2022/11/09 10:41:50;;;;;;;3.40;2.07;;;15.20;99.90;;;;;;5139557;27;20976;-62
2022/11/09 10:44:21;;;;;;;4.10;2.43;;;15.40;99.90;;;;;;5140093;27;20451;-61
2022/11/09 10:47:08;;;;;;;6.33;2.17;;;15.50;99.90;;;;;;5139504;27;20438;-62
2022/11/09 10:49:36;;;;;;;5.00;2.37;;;15.90;99.90;;;;;;5138650;27;20460;-61
2022/11/09 10:52:05;;;;;;;4.07;2.33;;;16.00;99.90;;;;;;5139450;27;20549;-61
2022/11/09 10:54:34;;;;;;;4.93;2.17;;;16.20;99.90;;;;;;5139687;27;20589;-60
2022/11/09 10:57:14;;;;;;;5.13;2.30;;;16.30;99.90;;;;;;5139939;27;20505;-61
2022/11/09 10:59:46;;;;;;;4.30;2.40;;;15.90;99.90;;;;;;5139425;27;20459;-61
2022/11/09 11:02:43;;;;;;;4.20;2.60;;;15.90;99.90;;;;;;5138751;27;20584;-61
2022/11/09 11:05:32;;;;;;;5.63;2.40;;;15.90;99.90;;;;;;5137902;27;20454;-59
2022/11/09 11:08:20;;;;;;;8.30;2.17;;;16.10;99.90;;;;;;5137533;27;20511;-59
2022/11/09 11:10:48;;;;;;;3.50;2.40;;;16.10;99.90;;;;;;5138607;27;20459;-61
2022/11/09 11:13:24;;;;;;;6.13;2.70;;;16.30;99.90;;;;;;5138285;27;20512;-59
2022/11/09 11:15:55;;;;;;;7.80;2.70;;;16.60;99.90;;;;;;5138478;27;20503;-57
2022/11/09 11:18:26;;;;;;;4.83;2.33;;;16.70;99.90;;;;;;5137346;27;20486;-59
2022/11/09 11:21:13;;;;;;;5.93;2.53;;;16.80;99.90;;;;;;5138493;27;20879;-60
2022/11/09 11:23:41;;;;;;;3.50;2.00;;;16.80;99.90;;;;;;5138728;27;20507;-61
2022/11/09 11:26:30;;;;;;;7.40;2.80;;;16.60;99.90;;;;;;5139159;27;20451;-60
2022/11/09 11:29:01;;;;;;;4.10;2.30;;;16.10;99.90;;;;;;5138994;27;20461;-58
2022/11/09 11:31:31;;;;;;;3.53;2.30;;;16.10;99.90;;;;;;5138707;27;20527;-59
2022/11/09 11:34:02;;;;;;;3.53;2.13;;;15.80;99.90;;;;;;5138935;27;20486;-62
2022/11/09 11:36:39;;;;;;;3.37;2.07;;;15.70;99.90;;;;;;5139089;27;20465;-62
2022/11/09 11:39:15;;;;;;;5.17;1.70;;;16.00;99.90;;;;;;5138331;27;20772;-61
2022/11/09 11:42:00;;;;;;;3.23;2.47;;;16.00;99.90;;;;;;5126885;27;20477;-60
2022/11/09 11:44:49;;;;;;;5.83;2.37;;;16.00;99.90;;;;;;5138962;27;20483;-62
2022/11/09 11:47:24;;;;;;;5.53;1.93;;;15.80;99.90;;;;;;5126714;27;21130;-61
2022/11/09 11:50:25;;;;;;;5.77;2.30;;;15.70;99.90;;;;;;5136698;27;20507;-62
2022/11/09 11:53:13;;;;;;;3.47;2.07;;;15.90;99.90;;;;;;5117805;28;20458;-61
2022/11/09 11:56:07;;;;;;;4.57;2.10;;;16.00;99.90;;;;;;5117476;28;20430;-61
2022/11/09 11:58:51;;;;;;;4.00;2.10;;;16.20;99.90;;;;;;5117798;28;20464;-61
2022/11/09 12:01:34;;;;;;;5.07;2.30;;;16.10;99.90;;;;;;5120082;27;20823;-61
2022/11/09 12:04:24;;;;;;;3.00;2.07;;;16.00;99.90;;;;;;5117714;28;20455;-60
2022/11/09 12:07:17;;;;;;;3.90;2.00;;;16.20;99.90;;;;;;5117748;28;20455;-63
2022/11/09 12:10:14;;;;;;;4.67;2.87;;;16.30;99.90;;;;;;5117100;28;20463;-59
2022/11/09 12:12:50;;;;;;;4.90;2.70;;;16.30;99.90;;;;;;5130771;27;20887;-61
2022/11/09 12:15:30;;;;;;;7.93;2.50;;;16.10;99.90;;;;;;5136715;27;20497;-61
2022/11/09 12:18:13;;;;;;;5.00;2.60;;;16.00;99.90;;;;;;5137779;28;20514;-61
2022/11/09 12:20:48;;;;;;;3.27;2.20;;;16.00;99.90;;;;;;5138432;27;20435;-61
2022/11/09 12:23:31;;;;;;;4.53;2.53;;;15.80;99.90;;;;;;5138037;28;20502;-62
2022/11/09 12:26:14;;;;;;;5.43;2.43;;;15.80;99.90;;;;;;5138284;28;20454;-61
2022/11/09 12:29:06;;;;;;;4.33;2.10;;;15.60;99.90;;;;;;5138544;27;20862;-60
2022/11/09 12:31:45;;;;;;;6.10;2.47;;;15.60;99.90;;;;;;5142308;27;20433;-61
2022/11/09 12:34:21;;;;;;;6.67;2.30;;;15.60;99.90;;;;;;5141830;27;20536;-61
2022/11/09 12:37:01;;;;;;;4.10;2.70;;;15.60;99.90;;;;;;5139978;27;20470;-60
2022/11/09 12:39:37;;;;;;;4.60;2.27;;;15.50;99.90;;;;;;5140242;27;20454;-61
2022/11/09 12:42:09;;;;;;;6.17;2.80;;;15.50;99.90;;;;;;5140298;27;20465;-62
2022/11/09 12:44:44;;;;;;;3.27;2.00;;;15.40;99.90;;;;;;5141454;27;20458;-62
2022/11/09 12:47:15;;;;;;;6.37;2.30;;;15.40;99.90;;;;;;5141907;27;20732;-62
2022/11/09 12:49:44;;;;;;;3.13;2.17;;;15.50;99.90;;;;;;5140894;27;20462;-62
2022/11/09 12:52:15;;;;;;;5.23;3.70;;;15.50;99.90;;;;;;5141802;27;20462;-59
2022/11/09 12:54:47;;;;;;;8.20;2.40;;;15.40;99.90;;;;;;5139894;27;20497;-62
2022/11/09 12:57:22;;;;;;;4.10;2.50;;;15.30;99.90;;;;;;5134750;27;20843;-62
2022/11/09 12:59:52;;;;;;;5.83;2.43;;;15.30;99.90;;;;;;5142471;27;20461;-61
2022/11/09 13:02:32;;;;;;;4.77;2.53;;;15.30;99.90;;;;;;5136165;27;20487;-61
2022/11/09 13:05:01;;;;;;;7.17;2.50;;;15.40;99.90;;;;;;5132260;27;20455;-62
2022/11/09 13:07:45;;;;;;;9.23;2.90;;;15.30;99.90;;;;;;5138186;27;20764;-58
2022/11/09 13:10:30;;;;;;;6.17;2.40;;;15.30;99.90;;;;;;5137878;27;20462;-62
2022/11/09 13:13:21;;;;;;;5.30;2.13;;;15.20;99.90;;;;;;5139084;27;20571;-60